| time (UTC) | temp F | wind direction | speed knots | gust knots | rain 1hr in | rain 24hr in | rain mn in | humidity % | barometer mb |
| 20260502190018 | 65 | 232 | 4.3 | 6.1 | 0.00 | 0.00 | 0.00 | 38 | 1008.9 |
| 20260502185019 | 66 | 255 | 5.2 | 7.8 | 0.00 | 0.00 | 0.00 | 38 | 1009.2 |
| 20260502184019 | 65 | 195 | 2.6 | 4.3 | 0.00 | 0.00 | 0.00 | 39 | 1009.0 |
| 20260502183016 | 65 | 256 | 3.5 | 6.1 | 0.00 | 0.00 | 0.00 | 39 | 1009.2 |
| 20260502182019 | 64 | 287 | 1.7 | 3.5 | 0.00 | 0.00 | 0.00 | 39 | 1009.5 |
| 20260502181039 | 64 | 21 | 2.6 | 4.3 | 0.00 | 0.00 | 0.00 | 40 | 1009.6 |
| 20260502164038 | 65 | 229 | 1.7 | 3.5 | 0.00 | 0.00 | 0.00 | 40 | 1010.2 |
| 20260502163018 | 65 | 250 | 2.6 | 4.3 | 0.00 | 0.00 | 0.00 | 38 | 1010.3 |
| 20260502162018 | 64 | 218 | 3.5 | 5.2 | 0.00 | 0.00 | 0.00 | 41 | 1010.4 |
| 20260502151016 | 55 | 179 | 4.3 | 7.0 | 0.00 | 0.00 | 0.00 | 56 | 1011.3 |
| 20260502122020 | 40 | 187 | 4.3 | 7.0 | 0.00 | 0.00 | 0.00 | 72 | 1013.1 |
| 20260502121019 | 40 | 200 | 3.5 | 7.8 | 0.00 | 0.00 | 0.00 | 72 | 1013.2 |
| 20260502115016 | 38 | 169 | 4.3 | 7.0 | 0.00 | 0.00 | 0.00 | 74 | 1013.3 |
| 20260502114017 | 38 | 170 | 4.3 | 6.1 | 0.00 | 0.00 | 0.00 | 72 | 1013.5 |
| 20260502113020 | 37 | 182 | 5.2 | 6.1 | 0.00 | 0.00 | 0.00 | 75 | 1013.5 |
| 20260502111020 | 38 | 167 | 2.6 | 4.3 | 0.00 | 0.00 | 0.00 | 74 | 1013.6 |
| 20260502110018 | 38 | 177 | 4.3 | 6.1 | 0.00 | 0.00 | 0.00 | 72 | 1013.6 |
| 20260502105018 | 38 | 173 | 4.3 | 6.1 | 0.00 | 0.00 | 0.00 | 71 | 1013.6 |
| 20260502104018 | 38 | 176 | 2.6 | 4.3 | 0.00 | 0.00 | 0.00 | 71 | 1013.8 |
| 20260502103018 | 38 | 159 | 3.5 | 5.2 | 0.00 | 0.00 | 0.00 | 72 | 1013.9 |
| 20260502102018 | 39 | 155 | 4.3 | 7.0 | 0.00 | 0.00 | 0.00 | 70 | 1013.9 |
| 20260502101018 | 39 | 159 | 3.5 | 5.2 | 0.00 | 0.00 | 0.00 | 69 | 1014.0 |
| 20260502091019 | 39 | 156 | 3.5 | 7.0 | 0.00 | 0.00 | 0.00 | 68 | 1014.9 |
| 20260502071018 | 40 | 166 | 2.6 | 3.5 | 0.00 | 0.00 | 0.00 | 66 | 1016.5 |
| 20260502070038 | 40 | 161 | 2.6 | 3.5 | 0.00 | 0.00 | 0.00 | 67 | 1016.6 |
| 20260502065018 | 40 | 165 | 1.7 | 2.6 | 0.00 | 0.00 | 0.00 | 67 | 1016.8 |
| 20260502064018 | 40 | 165 | 2.6 | 3.5 | 0.00 | 0.00 | 0.00 | 67 | 1016.9 |
| 20260502063019 | 40 | 174 | 2.6 | 2.6 | 0.00 | 0.00 | 0.00 | 66 | 1017.0 |
| 20260502062019 | 41 | 178 | 2.6 | 3.5 | 0.00 | 0.00 | 0.00 | 64 | 1017.1 |
| 20260502061019 | 41 | 177 | 2.6 | 4.3 | 0.00 | 0.00 | 0.00 | 64 | 1017.1 |
| 20260502060016 | 42 | 162 | 1.7 | 3.5 | 0.00 | 0.00 | 0.00 | 62 | 1017.2 |
| 20260502055019 | 42 | 177 | 2.6 | 3.5 | 0.00 | 0.00 | 0.00 | 61 | 1017.1 |
| 20260502054020 | 42 | 157 | 1.7 | 3.5 | 0.00 | 0.00 | 0.00 | 60 | 1017.1 |
| 20260502053020 | 42 | 156 | 1.7 | 2.6 | 0.00 | 0.00 | 0.00 | 59 | 1017.2 |
| 20260502051017 | 43 | 167 | 1.7 | 2.6 | 0.00 | 0.00 | 0.00 | 58 | 1017.3 |
| 20260502050017 | 43 | 162 | 2.6 | 2.6 | 0.00 | 0.00 | 0.00 | 56 | 1017.3 |
| 20260502045017 | 43 | 171 | 1.7 | 3.5 | 0.00 | 0.00 | 0.00 | 57 | 1017.4 |
| 20260502044021 | 44 | 170 | 0.9 | 1.7 | 0.00 | 0.00 | 0.00 | 55 | 1017.4 |
| 20260502043038 | 45 | 157 | 2.6 | 3.5 | 0.00 | 0.00 | 0.00 | 53 | 1017.4 |
| 20260502041018 | 46 | 167 | 2.6 | 4.3 | 0.00 | 0.00 | 0.00 | 48 | 1017.6 |
| 20260502034018 | 47 | 170 | 1.7 | 2.6 | 0.00 | 0.00 | 0.00 | 44 | 1017.7 |
| 20260502033019 | 47 | 172 | 1.7 | 1.7 | 0.00 | 0.00 | 0.00 | 44 | 1017.7 |
| 20260502031019 | 48 | 190 | 0.0 | 0.9 | 0.00 | 0.00 | 0.00 | 48 | 1017.7 |
| 20260502030018 | 48 | 166 | 0.9 | 1.7 | 0.00 | 0.00 | 0.00 | 43 | 1017.9 |
| 20260502024017 | 48 | 169 | 0.9 | 2.6 | 0.00 | 0.00 | 0.00 | 46 | 1017.9 |
| 20260502022024 | 49 | 149 | 0.9 | 2.6 | 0.00 | 0.00 | 0.00 | 45 | 1017.9 |
| 20260502021020 | 50 | 145 | 0.0 | 0.9 | 0.00 | 0.00 | 0.00 | 46 | 1017.9 |
| 20260502015017 | 52 | 170 | 0.9 | 1.7 | 0.00 | 0.00 | 0.00 | 41 | 1018.0 |
| 20260502011017 | 57 | 0.0 | 0.0 | 0.00 | 0.00 | 0.00 | 34 | 1018.3 | |
| 20260502010017 | 57 | 41 | 0.9 | 1.7 | 0.00 | 0.00 | 0.00 | 33 | 1018.4 |
| 20260502005018 | 56 | 49 | 2.6 | 3.5 | 0.00 | 0.00 | 0.00 | 33 | 1018.4 |
| 20260502004018 | 57 | 30 | 0.9 | 1.7 | 0.00 | 0.00 | 0.00 | 32 | 1018.5 |
| 20260502002019 | 58 | 109 | 0.9 | 5.2 | 0.00 | 0.00 | 0.00 | 32 | 1018.6 |
| 20260501232020 | 56 | 37 | 1.7 | 5.2 | 0.00 | 0.00 | 0.00 | 35 | 1018.9 |
| 20260501231019 | 56 | 270 | 0.9 | 2.6 | 0.00 | 0.00 | 0.00 | 34 | 1018.9 |
| 20260501230020 | 56 | 330 | 2.6 | 4.3 | 0.00 | 0.00 | 0.00 | 34 | 1018.9 |
| 20260501225037 | 56 | 304 | 2.6 | 5.2 | 0.00 | 0.00 | 0.00 | 35 | 1019.0 |
| 20260501224017 | 56 | 62 | 0.9 | 2.6 | 0.00 | 0.00 | 0.00 | 34 | 1019.0 |
| 20260501223018 | 56 | 17 | 1.7 | 4.3 | 0.00 | 0.00 | 0.00 | 35 | 1019.0 |
| 20260501222018 | 55 | 12 | 2.6 | 4.3 | 0.00 | 0.00 | 0.00 | 35 | 1019.1 |
| 20260501221021 | 56 | 310 | 1.7 | 2.6 | 0.00 | 0.00 | 0.00 | 35 | 1019.0 |
| 20260501220018 | 56 | 281 | 2.6 | 3.5 | 0.00 | 0.00 | 0.00 | 35 | 1019.1 |
| 20260501215018 | 55 | 52 | 0.0 | 0.9 | 0.00 | 0.00 | 0.00 | 36 | 1019.3 |
| 20260501214018 | 55 | 21 | 0.9 | 1.7 | 0.00 | 0.00 | 0.00 | 38 | 1019.3 |
| 20260501212018 | 55 | 14 | 2.6 | 3.5 | 0.00 | 0.00 | 0.00 | 36 | 1019.4 |
| 20260501205019 | 54 | 334 | 2.6 | 5.2 | 0.00 | 0.00 | 0.00 | 37 | 1019.7 |
| 20260501204039 | 55 | 173 | 3.5 | 5.2 | 0.00 | 0.00 | 0.00 | 38 | 1019.8 |
| 20260501203039 | 53 | 5 | 1.7 | 3.5 | 0.00 | 0.00 | 0.00 | 41 | 1019.9 |
| 20260501202017 | 52 | 259 | 1.7 | 3.5 | 0.00 | 0.00 | 0.00 | 39 | 1020.1 |
| 20260501201017 | 52 | 270 | 0.9 | 3.5 | 0.00 | 0.00 | 0.00 | 38 | 1020.2 |
| 20260501200017 | 52 | 20 | 6.1 | 10.4 | 0.00 | 0.00 | 0.00 | 40 | 1020.1 |
| 20260501193017 | 51 | 27 | 3.5 | 5.2 | 0.00 | 0.00 | 0.00 | 41 | 1020.3 |
| 20260501192018 | 50 | 267 | 4.3 | 6.1 | 0.00 | 0.00 | 0.00 | 42 | 1020.3 |
| 20260501191017 | 50 | 213 | 3.5 | 6.1 | 0.00 | 0.00 | 0.00 | 44 | 1020.4 |